createdAt,value
2022-11-19T00:01:14.897Z,10.52
2022-11-19T00:03:42.991Z,8.98
2022-11-19T00:06:15.285Z,6.78
2022-11-19T00:08:42.718Z,8.55
2022-11-19T00:11:11.179Z,6.63
2022-11-19T00:13:39.303Z,6.53
2022-11-19T00:16:12.164Z,8.23
2022-11-19T00:18:39.637Z,7.63
2022-11-19T00:21:09.553Z,7.97
2022-11-19T00:23:37.053Z,9.32
2022-11-19T00:26:13.731Z,8.02
2022-11-19T00:28:41.882Z,6.72
2022-11-19T00:31:10.977Z,12.00
2022-11-19T00:33:39.157Z,6.43
2022-11-19T00:36:08.878Z,8.07
2022-11-19T00:38:36.422Z,7.05
2022-11-19T00:41:03.835Z,8.50
2022-11-19T00:43:49.368Z,9.45
2022-11-19T00:46:21.742Z,5.85
2022-11-19T00:48:50.458Z,5.82
2022-11-19T00:51:18.716Z,9.48
2022-11-19T00:53:45.777Z,8.98
2022-11-19T00:56:15.231Z,8.38
2022-11-19T00:58:42.747Z,7.05
2022-11-19T01:01:10.590Z,8.82
2022-11-19T01:03:38.608Z,6.60
2022-11-19T01:06:06.252Z,6.18
2022-11-19T01:08:33.106Z,7.30
2022-11-19T01:11:12.012Z,5.53
2022-11-19T01:13:39.036Z,7.80
2022-11-19T01:16:16.059Z,7.68
2022-11-19T01:18:44.654Z,10.48
2022-11-19T01:21:12.219Z,7.28
2022-11-19T01:23:40.514Z,7.45
2022-11-19T01:26:08.299Z,5.82
2022-11-19T01:28:35.824Z,7.50
2022-11-19T01:31:15.434Z,8.27
2022-11-19T01:33:42.602Z,7.25
2022-11-19T01:36:21.654Z,10.27
2022-11-19T01:38:51.163Z,9.10
2022-11-19T01:41:23.238Z,8.18
2022-11-19T01:43:59.371Z,9.05
2022-11-19T01:46:35.313Z,9.10
2022-11-19T01:49:21.081Z,7.00
2022-11-19T01:52:02.706Z,9.95
2022-11-19T01:54:51.078Z,9.77
2022-11-19T01:57:18.938Z,13.15
2022-11-19T01:59:50.797Z,8.98
2022-11-19T02:02:25.404Z,10.27
2022-11-19T02:04:53.898Z,8.27
2022-11-19T02:07:26.347Z,12.68
2022-11-19T02:09:53.377Z,9.68
2022-11-19T02:12:55.772Z,6.93
2022-11-19T02:15:27.946Z,9.27
2022-11-19T02:18:10.016Z,9.95
2022-11-19T02:20:39.650Z,10.25
2022-11-19T02:23:45.915Z,6.85
2022-11-19T02:26:32.283Z,8.15
2022-11-19T02:29:14.138Z,6.43
2022-11-19T02:31:47.720Z,10.55
2022-11-19T02:34:17.618Z,11.50
2022-11-19T02:36:57.878Z,9.05
2022-11-19T02:39:51.096Z,10.07
2022-11-19T02:42:29.882Z,9.13
2022-11-19T02:45:10.344Z,9.57
2022-11-19T02:47:55.197Z,7.65
2022-11-19T02:50:36.723Z,8.38
2022-11-19T02:53:04.890Z,7.55
2022-11-19T02:55:32.206Z,9.77
2022-11-19T02:58:07.075Z,7.30
2022-11-19T03:01:01.423Z,8.38
2022-11-19T03:03:47.423Z,8.30
2022-11-19T03:06:20.844Z,9.88
2022-11-19T03:08:48.086Z,8.77
2022-11-19T03:11:29.687Z,6.85
2022-11-19T03:14:21.172Z,8.88
2022-11-19T03:17:03.356Z,7.68
2022-11-19T03:19:43.041Z,6.72
2022-11-19T03:22:27.991Z,8.88
2022-11-19T03:24:57.729Z,7.03
2022-11-19T03:27:30.217Z,9.75
2022-11-19T03:30:01.091Z,8.00
2022-11-19T03:32:46.803Z,10.75
2022-11-19T03:35:21.737Z,9.18
2022-11-19T03:37:52.473Z,10.73
2022-11-19T03:40:21.783Z,7.97
2022-11-19T03:42:53.157Z,7.80
2022-11-19T03:45:27.235Z,6.18
2022-11-19T03:47:55.357Z,7.53
2022-11-19T03:50:35.255Z,5.88
2022-11-19T03:53:04.713Z,7.40
2022-11-19T03:55:39.554Z,7.03
2022-11-19T03:58:09.530Z,8.10
2022-11-19T04:00:36.758Z,6.80
2022-11-19T04:03:04.288Z,8.30
2022-11-19T04:05:31.178Z,10.43
2022-11-19T04:07:57.957Z,6.97
2022-11-19T04:10:24.822Z,6.75
2022-11-19T04:12:51.613Z,7.05
2022-11-19T04:15:18.561Z,6.80
2022-11-19T04:17:45.344Z,6.82
2022-11-19T04:20:12.253Z,8.10
2022-11-19T04:22:39.134Z,10.90
2022-11-19T04:25:06.412Z,7.00
2022-11-19T04:27:33.537Z,11.15
2022-11-19T04:30:00.450Z,8.23
2022-11-19T04:32:27.478Z,8.73
2022-11-19T04:34:54.321Z,6.60
2022-11-19T04:37:21.261Z,7.43
2022-11-19T04:39:48.082Z,8.52
2022-11-19T04:42:14.893Z,6.85
2022-11-19T04:44:41.827Z,7.85
2022-11-19T04:47:08.615Z,7.13
2022-11-19T04:49:35.606Z,12.57
2022-11-19T04:52:02.436Z,7.20
2022-11-19T04:54:29.285Z,6.75
2022-11-19T04:56:56.153Z,7.43
2022-11-19T04:59:23.073Z,7.03
2022-11-19T05:01:49.988Z,8.60
2022-11-19T05:04:16.961Z,8.38
2022-11-19T05:06:43.793Z,8.38
2022-11-19T05:09:11.023Z,8.65
2022-11-19T05:11:37.866Z,9.80
2022-11-19T05:14:04.873Z,8.35
2022-11-19T05:16:31.705Z,6.95
2022-11-19T05:18:58.546Z,7.15
2022-11-19T05:21:25.336Z,7.18
2022-11-19T05:23:52.199Z,8.10
2022-11-19T05:26:19.042Z,8.05
2022-11-19T05:28:46.228Z,6.03
2022-11-19T05:31:13.040Z,9.55
2022-11-19T05:33:39.900Z,6.45
2022-11-19T05:36:07.354Z,6.47
2022-11-19T05:38:34.178Z,5.40
2022-11-19T05:41:01.032Z,6.90
2022-11-19T05:43:27.815Z,9.30
2022-11-19T05:45:54.642Z,6.65
2022-11-19T05:48:21.558Z,5.80
2022-11-19T05:50:48.352Z,12.13
2022-11-19T05:53:15.141Z,8.90
2022-11-19T05:55:41.984Z,6.40
2022-11-19T05:58:08.866Z,8.70
2022-11-19T06:00:35.687Z,8.10
2022-11-19T06:03:02.579Z,10.82
2022-11-19T06:05:29.421Z,8.02
2022-11-19T06:07:56.183Z,7.15
2022-11-19T06:10:23.241Z,7.93
2022-11-19T06:12:50.122Z,8.88
2022-11-19T06:15:17.288Z,8.40
2022-11-19T06:17:44.194Z,7.63
2022-11-19T06:20:11.392Z,6.88
2022-11-19T06:22:38.746Z,5.93
2022-11-19T06:25:07.752Z,7.63
2022-11-19T06:27:35.019Z,6.50
2022-11-19T06:30:02.192Z,8.05
2022-11-19T06:32:29.149Z,7.07
2022-11-19T06:34:55.987Z,7.75
2022-11-19T06:37:23.398Z,8.95
2022-11-19T06:39:50.352Z,7.85
2022-11-19T06:42:35.894Z,8.95
2022-11-19T06:45:06.831Z,8.63
2022-11-19T06:47:34.244Z,8.95
2022-11-19T06:50:01.431Z,7.93
2022-11-19T06:52:28.871Z,7.65
2022-11-19T06:54:55.724Z,7.07
2022-11-19T06:57:22.657Z,9.60
2022-11-19T06:59:49.565Z,8.25
2022-11-19T07:02:21.147Z,8.05
2022-11-19T07:04:48.440Z,9.38
2022-11-19T07:07:15.409Z,6.20
2022-11-19T07:09:42.430Z,7.07
2022-11-19T07:12:09.837Z,8.00
2022-11-19T07:14:36.683Z,6.78
2022-11-19T07:17:05.005Z,7.20
2022-11-19T07:19:32.134Z,6.97
2022-11-19T07:21:59.011Z,7.82
2022-11-19T07:24:26.775Z,8.02
2022-11-19T07:26:54.835Z,8.23
2022-11-19T07:29:22.120Z,6.75
2022-11-19T07:31:50.732Z,7.43
2022-11-19T07:34:18.376Z,8.02
2022-11-19T07:36:45.946Z,11.63
2022-11-19T07:39:12.932Z,7.15
2022-11-19T07:41:58.499Z,10.32
2022-11-19T07:44:25.446Z,9.52
2022-11-19T07:46:52.428Z,8.60
2022-11-19T07:49:20.491Z,8.48
2022-11-19T07:51:47.894Z,8.95
2022-11-19T07:54:15.145Z,8.43
2022-11-19T07:56:42.174Z,6.75
2022-11-19T07:59:09.180Z,7.88
2022-11-19T08:01:36.222Z,9.77
2022-11-19T08:04:05.195Z,6.97
2022-11-19T08:06:34.385Z,11.25
2022-11-19T08:09:02.400Z,7.63
2022-11-19T08:11:29.743Z,8.48
2022-11-19T08:13:59.642Z,9.07
2022-11-19T08:16:45.213Z,11.32
2022-11-19T08:19:15.750Z,12.23
2022-11-19T08:21:45.213Z,9.50
2022-11-19T08:24:12.813Z,8.57
2022-11-19T08:26:40.830Z,11.68
2022-11-19T08:29:14.655Z,8.60
2022-11-19T08:31:44.916Z,5.50
2022-11-19T08:34:11.877Z,5.68
2022-11-19T08:36:38.689Z,6.88
2022-11-19T08:39:06.765Z,11.13
2022-11-19T08:41:52.425Z,8.18
2022-11-19T08:44:19.921Z,4.95
2022-11-19T08:46:46.850Z,8.07
2022-11-19T08:49:14.181Z,28.58
2022-11-19T08:51:41.316Z,41.72
2022-11-19T08:54:09.021Z,42.97
2022-11-19T08:56:35.944Z,39.55
2022-11-19T08:59:03.574Z,33.65
2022-11-19T09:01:30.970Z,45.97
2022-11-19T09:03:58.216Z,27.10
2022-11-19T09:06:25.352Z,31.98
2022-11-19T09:08:52.341Z,24.10
2022-11-19T09:11:20.779Z,15.73
2022-11-19T09:13:47.672Z,44.15
2022-11-19T09:16:15.291Z,45.28
2022-11-19T09:18:42.519Z,30.85
2022-11-19T09:21:11.476Z,81.75
2022-11-19T09:23:39.520Z,31.38
2022-11-19T09:26:08.735Z,38.13
2022-11-19T09:28:36.302Z,52.42
2022-11-19T09:31:07.039Z,41.38
2022-11-19T09:33:36.057Z,34.65
2022-11-19T09:36:04.085Z,38.20
2022-11-19T09:38:35.512Z,37.50
2022-11-19T09:41:38.473Z,20.75
2022-11-19T09:44:11.026Z,14.55
2022-11-19T09:47:19.554Z,10.32
2022-11-19T09:50:13.386Z,16.33
2022-11-19T09:52:45.715Z,12.77
2022-11-19T09:55:20.040Z,12.45
2022-11-19T09:57:54.791Z,11.18
2022-11-19T10:00:28.544Z,16.33
2022-11-19T10:02:57.105Z,14.75
2022-11-19T10:06:00.466Z,10.27
2022-11-19T10:08:40.992Z,8.20
2022-11-19T10:11:27.095Z,11.65
2022-11-19T10:14:18.855Z,7.00
2022-11-19T10:17:19.284Z,9.82
2022-11-19T10:20:27.629Z,11.65
2022-11-19T10:23:02.984Z,7.07
2022-11-19T10:25:37.746Z,4.55
2022-11-19T10:28:23.549Z,3.70
2022-11-19T10:30:54.516Z,5.95
2022-11-19T10:33:33.459Z,6.70
2022-11-19T10:36:10.574Z,4.30
2022-11-19T10:39:07.838Z,4.45
2022-11-19T10:41:42.338Z,5.68
2022-11-19T10:44:38.122Z,7.60
2022-11-19T10:47:08.538Z,3.13
2022-11-19T10:49:39.439Z,4.75
2022-11-19T10:52:14.826Z,3.58
2022-11-19T10:54:42.363Z,4.20
2022-11-19T10:57:15.815Z,3.95
2022-11-19T10:59:43.398Z,2.92
2022-11-19T11:02:33.313Z,5.35
2022-11-19T11:05:13.085Z,3.10
2022-11-19T11:08:12.387Z,3.15
2022-11-19T11:10:45.547Z,3.15
2022-11-19T11:13:36.917Z,2.85
2022-11-19T11:16:10.777Z,2.80
2022-11-19T11:18:42.213Z,4.15
2022-11-19T11:21:24.708Z,3.58
2022-11-19T11:23:54.014Z,6.85
2022-11-19T11:26:29.536Z,5.72
2022-11-19T11:29:02.874Z,4.57
2022-11-19T11:31:45.786Z,3.72
2022-11-19T11:34:29.068Z,4.55
2022-11-19T11:37:00.131Z,3.92
2022-11-19T11:39:31.227Z,4.10
2022-11-19T11:42:08.304Z,3.83
2022-11-19T11:44:39.065Z,48.58
2022-11-19T11:47:19.608Z,23.80
2022-11-19T11:49:55.472Z,20.63
2022-11-19T11:52:36.901Z,18.33
2022-11-19T11:55:14.060Z,20.98
2022-11-19T11:58:00.819Z,24.92
2022-11-19T12:00:29.579Z,16.73
2022-11-19T12:03:10.928Z,9.65
2022-11-19T12:05:44.609Z,9.90
2022-11-19T12:08:42.980Z,14.68
2022-11-19T12:11:51.497Z,10.65
2022-11-19T12:14:28.971Z,7.88
2022-11-19T12:17:10.901Z,14.45
2022-11-19T12:20:23.417Z,8.05
2022-11-19T12:22:54.116Z,9.43
2022-11-19T12:25:36.635Z,4.78
2022-11-19T12:28:25.285Z,7.63
2022-11-19T12:30:57.684Z,10.85
2022-11-19T12:33:40.963Z,6.53
2022-11-19T12:36:25.340Z,6.28
2022-11-19T12:39:17.095Z,20.08
2022-11-19T12:42:15.974Z,26.17
2022-11-19T12:44:59.715Z,10.93
2022-11-19T12:47:45.183Z,9.02
2022-11-19T12:50:30.317Z,14.18
2022-11-19T12:53:25.023Z,10.85
2022-11-19T12:56:13.032Z,6.78
2022-11-19T12:58:39.867Z,7.82
2022-11-19T13:01:15.372Z,9.38
2022-11-19T13:04:13.186Z,8.55
2022-11-19T13:06:52.860Z,5.90
2022-11-19T13:09:32.911Z,7.70
2022-11-19T13:12:22.781Z,6.72
2022-11-19T13:15:02.162Z,8.15
2022-11-19T13:17:44.489Z,6.80
2022-11-19T13:20:26.547Z,9.80
2022-11-19T13:23:02.387Z,6.78
2022-11-19T13:25:45.452Z,6.25
2022-11-19T13:28:30.890Z,7.28
2022-11-19T13:31:04.192Z,5.97
2022-11-19T13:33:52.521Z,6.72
2022-11-19T13:36:27.298Z,6.63
2022-11-19T13:39:32.978Z,5.97
2022-11-19T13:42:20.096Z,7.70
2022-11-19T13:44:47.888Z,6.50
2022-11-19T13:47:25.435Z,15.05
2022-11-19T13:50:00.870Z,14.48
2022-11-19T13:52:42.375Z,7.05
2022-11-19T13:55:29.448Z,6.60
2022-11-19T13:58:06.474Z,9.85
2022-11-19T14:00:33.426Z,6.57
2022-11-19T14:03:38.972Z,7.82
2022-11-19T14:06:42.604Z,6.95
2022-11-19T14:09:56.043Z,9.30
2022-11-19T14:12:32.335Z,7.40
2022-11-19T14:15:20.607Z,8.05
2022-11-19T14:18:36.816Z,8.05
2022-11-19T14:21:59.170Z,6.95
2022-11-19T14:24:44.716Z,6.13
2022-11-19T14:27:15.538Z,7.10
2022-11-19T14:29:45.412Z,12.55
2022-11-19T14:32:12.615Z,7.82
2022-11-19T14:35:08.868Z,6.15
2022-11-19T14:37:42.872Z,8.88
2022-11-19T14:40:12.776Z,11.32
2022-11-19T14:43:23.826Z,10.65
2022-11-19T14:46:03.052Z,10.63
2022-11-19T14:48:40.227Z,9.52
2022-11-19T14:51:12.214Z,11.00
2022-11-19T14:53:59.665Z,12.80
2022-11-19T14:56:27.387Z,7.82
2022-11-19T14:59:16.402Z,7.80
2022-11-19T15:02:03.642Z,6.15
2022-11-19T15:04:59.572Z,6.85
2022-11-19T15:07:45.068Z,9.73
2022-11-19T15:10:14.861Z,5.35
2022-11-19T15:12:44.806Z,9.90
2022-11-19T15:15:20.846Z,11.07
2022-11-19T15:18:01.906Z,7.82
2022-11-19T15:21:02.958Z,8.50
2022-11-19T15:23:49.215Z,5.57
2022-11-19T15:26:26.866Z,7.13
2022-11-19T15:29:21.654Z,8.70
2022-11-19T15:32:22.901Z,7.45
2022-11-19T15:35:11.242Z,10.02
2022-11-19T15:38:07.408Z,8.32
2022-11-19T15:40:34.837Z,9.63
2022-11-19T15:43:04.553Z,8.05
2022-11-19T15:45:47.787Z,8.77
2022-11-19T15:48:25.229Z,9.27
2022-11-19T15:50:52.709Z,10.65
2022-11-19T15:53:22.317Z,11.68
2022-11-19T15:55:58.278Z,13.38
2022-11-19T15:58:40.822Z,13.60
2022-11-19T16:01:16.582Z,12.75
2022-11-19T16:03:44.097Z,14.95
2022-11-19T16:06:18.987Z,17.40
2022-11-19T16:08:48.167Z,17.90
2022-11-19T16:11:36.571Z,20.52
2022-11-19T16:14:35.402Z,17.70
2022-11-19T16:17:35.789Z,20.83
2022-11-19T16:20:06.548Z,19.88
2022-11-19T16:22:35.231Z,19.92
2022-11-19T16:25:10.456Z,18.80
2022-11-19T16:27:42.765Z,24.30
2022-11-19T16:30:21.091Z,22.42
2022-11-19T16:32:49.133Z,22.33
2022-11-19T16:35:33.806Z,21.85
2022-11-19T16:38:01.829Z,22.65
2022-11-19T16:40:49.518Z,21.83
2022-11-19T16:43:16.832Z,23.08
2022-11-19T16:45:45.766Z,26.42
2022-11-19T16:48:52.971Z,26.25
2022-11-19T16:52:03.009Z,24.35
2022-11-19T16:54:48.427Z,25.05
2022-11-19T16:57:21.272Z,29.50
2022-11-19T16:59:53.730Z,27.95
2022-11-19T17:02:23.368Z,24.88
2022-11-19T17:04:53.656Z,29.10
2022-11-19T17:07:26.366Z,26.80
2022-11-19T17:10:12.266Z,28.95
2022-11-19T17:12:52.024Z,25.27
2022-11-19T17:15:40.307Z,30.83
2022-11-19T17:18:10.145Z,27.30
2022-11-19T17:20:36.993Z,33.45
2022-11-19T17:23:15.091Z,27.58
2022-11-19T17:25:58.513Z,29.88
2022-11-19T17:28:41.729Z,32.63
2022-11-19T17:31:18.262Z,33.35
2022-11-19T17:34:09.597Z,31.58
2022-11-19T17:36:36.599Z,34.67
2022-11-19T17:39:10.057Z,31.88
2022-11-19T17:41:56.395Z,39.00
2022-11-19T17:44:32.049Z,33.75
2022-11-19T17:46:59.417Z,34.72
2022-11-19T17:49:26.380Z,34.60
2022-11-19T17:51:55.341Z,34.70
2022-11-19T17:54:23.096Z,34.85
2022-11-19T17:56:50.155Z,36.47
2022-11-19T17:59:17.212Z,37.80
2022-11-19T18:01:44.147Z,41.08
2022-11-19T18:04:12.600Z,34.80
2022-11-19T18:06:39.937Z,42.40
2022-11-19T18:09:06.887Z,39.25
2022-11-19T18:11:34.373Z,42.65
2022-11-19T18:14:02.129Z,39.55
2022-11-19T18:16:35.332Z,39.28
2022-11-19T18:19:02.200Z,39.10
2022-11-19T18:21:29.090Z,37.35
2022-11-19T18:23:55.950Z,39.38
2022-11-19T18:26:23.698Z,40.47
2022-11-19T18:28:51.119Z,38.33
2022-11-19T18:31:26.180Z,49.20
2022-11-19T18:33:53.405Z,41.55
2022-11-19T18:36:21.436Z,46.70
2022-11-19T18:38:49.320Z,48.25
2022-11-19T18:41:19.057Z,47.33
2022-11-19T18:44:04.906Z,41.67
2022-11-19T18:46:32.273Z,58.42
2022-11-19T18:49:00.449Z,50.58
2022-11-19T18:51:30.941Z,44.60
2022-11-19T18:53:57.925Z,45.30
2022-11-19T18:56:25.071Z,43.30
2022-11-19T18:58:52.351Z,46.13
2022-11-19T19:01:30.281Z,42.75
2022-11-19T19:04:03.760Z,46.47
2022-11-19T19:06:34.644Z,47.33
2022-11-19T19:09:05.925Z,41.10
2022-11-19T19:11:56.748Z,45.60
2022-11-19T19:14:23.820Z,42.70
2022-11-19T19:16:51.186Z,41.10
2022-11-19T19:19:20.291Z,49.38
2022-11-19T19:21:47.724Z,44.92
2022-11-19T19:24:14.987Z,45.08
2022-11-19T19:26:42.182Z,40.33
2022-11-19T19:29:10.676Z,46.20
2022-11-19T19:31:37.672Z,41.80
2022-11-19T19:34:04.725Z,45.17
2022-11-19T19:36:31.852Z,46.80
2022-11-19T19:38:58.637Z,52.25
2022-11-19T19:41:27.175Z,47.97
2022-11-19T19:43:55.661Z,53.20
2022-11-19T19:46:23.833Z,52.28
2022-11-19T19:48:53.004Z,57.97
2022-11-19T19:51:22.130Z,51.67
2022-11-19T19:53:49.730Z,54.95
2022-11-19T19:56:28.127Z,55.47
2022-11-19T19:58:56.668Z,60.08
2022-11-19T20:01:25.878Z,50.15
2022-11-19T20:03:54.880Z,57.58
2022-11-19T20:06:23.712Z,53.92
2022-11-19T20:08:50.633Z,58.53
2022-11-19T20:11:24.736Z,49.75
2022-11-19T20:13:53.134Z,56.08
2022-11-19T20:16:23.039Z,55.80
2022-11-19T20:18:51.078Z,56.60
2022-11-19T20:21:26.141Z,56.67
2022-11-19T20:23:53.675Z,56.55
2022-11-19T20:26:23.588Z,53.15
2022-11-19T20:28:58.835Z,60.40
2022-11-19T20:31:26.637Z,52.78
2022-11-19T20:33:56.371Z,53.75
2022-11-19T20:36:24.692Z,48.17
2022-11-19T20:38:52.266Z,53.40
2022-11-19T20:41:46.514Z,58.55
2022-11-19T20:44:21.074Z,54.90
2022-11-19T20:46:52.962Z,50.70
2022-11-19T20:49:22.470Z,57.42
2022-11-19T20:51:50.720Z,52.58
2022-11-19T20:54:18.402Z,52.83
2022-11-19T20:56:45.594Z,53.33
2022-11-19T20:59:12.701Z,51.15
2022-11-19T21:01:40.227Z,49.67
2022-11-19T21:04:08.538Z,51.47
2022-11-19T21:06:35.458Z,51.78
2022-11-19T21:09:03.034Z,50.63
2022-11-19T21:11:30.242Z,55.60
2022-11-19T21:13:57.407Z,50.08
2022-11-19T21:16:26.006Z,55.05
2022-11-19T21:18:53.425Z,51.22
2022-11-19T21:21:22.131Z,47.63
2022-11-19T21:23:49.074Z,51.95
2022-11-19T21:26:24.414Z,52.00
2022-11-19T21:28:53.532Z,52.08
2022-11-19T21:31:22.945Z,51.90
2022-11-19T21:33:49.848Z,46.65
2022-11-19T21:36:16.934Z,45.92
2022-11-19T21:38:44.070Z,47.22
2022-11-19T21:41:10.896Z,47.60
2022-11-19T21:43:37.949Z,48.72
2022-11-19T21:46:08.097Z,46.15
2022-11-19T21:48:38.420Z,52.05
2022-11-19T21:51:08.943Z,47.30
2022-11-19T21:53:36.166Z,52.40
2022-11-19T21:56:03.316Z,47.25
2022-11-19T21:58:30.250Z,47.85
2022-11-19T22:01:01.848Z,46.10
2022-11-19T22:03:34.070Z,44.15
2022-11-19T22:06:11.769Z,45.13
2022-11-19T22:08:40.689Z,43.90
2022-11-19T22:11:27.774Z,48.53
2022-11-19T22:13:55.607Z,40.60
2022-11-19T22:16:22.834Z,42.30
2022-11-19T22:18:49.737Z,43.63
2022-11-19T22:21:17.089Z,46.25
2022-11-19T22:23:43.920Z,41.83
2022-11-19T22:26:12.466Z,47.58
2022-11-19T22:28:40.238Z,44.15
2022-11-19T22:31:07.705Z,47.38
2022-11-19T22:33:37.441Z,44.58
2022-11-19T22:36:09.749Z,48.95
2022-11-19T22:38:38.456Z,43.47
2022-11-19T22:41:08.372Z,43.25
2022-11-19T22:43:36.172Z,48.72
2022-11-19T22:46:03.799Z,44.63
2022-11-19T22:48:33.531Z,45.47
2022-11-19T22:51:06.410Z,45.05
2022-11-19T22:53:38.174Z,44.72
2022-11-19T22:56:07.856Z,45.50
2022-11-19T22:58:35.124Z,49.13
2022-11-19T23:01:02.271Z,41.65
2022-11-19T23:03:29.143Z,44.95
2022-11-19T23:05:57.230Z,41.35
2022-11-19T23:08:24.205Z,46.38
2022-11-19T23:10:58.469Z,44.70
2022-11-19T23:13:31.868Z,47.42
2022-11-19T23:16:11.053Z,41.75
2022-11-19T23:18:41.886Z,40.25
2022-11-19T23:21:13.463Z,37.78
2022-11-19T23:23:40.796Z,40.20
2022-11-19T23:26:10.336Z,39.33
2022-11-19T23:28:38.233Z,43.00
2022-11-19T23:31:32.829Z,41.72
2022-11-19T23:33:59.921Z,37.78
2022-11-19T23:36:29.520Z,40.10
2022-11-19T23:38:57.462Z,39.67
2022-11-19T23:41:24.677Z,39.63
2022-11-19T23:43:53.959Z,39.15
2022-11-19T23:46:23.880Z,45.92
2022-11-19T23:48:51.150Z,46.50
2022-11-19T23:51:20.646Z,44.05
2022-11-19T23:53:48.391Z,45.25
2022-11-19T23:56:16.743Z,41.85
2022-11-19T23:58:43.936Z,42.72
